Аэропорт: Ивано-Франковск. Ивано-Франковск

ICAO: UKLI

METAR:
2019-07-23 18:30:00
UKLI 231830Z 29003MPS 250V310 CAVOK 18/14 Q1018 R28/090070 NOSIG
METAR:
2019-07-23 17:03:00
TAF UKLI 231703Z 2318/2403 28004MPS 6000 BKN030 TEMPO 2318/2403 VRB01MPS 1200 -RA BR BKN015